createdAt,value
2019-03-16T00:01:12.683Z,4.33
2019-03-16T00:03:42.464Z,4.67
2019-03-16T00:06:13.031Z,5.20
2019-03-16T00:08:43.664Z,4.30
2019-03-16T00:11:14.321Z,5.87
2019-03-16T00:13:44.883Z,4.60
2019-03-16T00:16:15.411Z,5.23
2019-03-16T00:18:45.880Z,5.03
2019-03-16T00:21:16.389Z,4.93
2019-03-16T00:23:46.927Z,4.03
2019-03-16T00:26:17.550Z,4.97
2019-03-16T00:28:48.041Z,4.73
2019-03-16T00:31:18.584Z,4.57
2019-03-16T00:36:31.368Z,4.93
2019-03-16T00:39:01.919Z,3.90
2019-03-16T00:41:32.556Z,4.83
2019-03-16T00:44:03.157Z,3.50
2019-03-16T00:46:33.683Z,4.27
2019-03-16T00:49:04.296Z,3.60
2019-03-16T00:51:34.823Z,4.63
2019-03-16T00:54:05.463Z,4.67
2019-03-16T00:56:36.112Z,3.37
2019-03-16T00:59:06.686Z,4.10
2019-03-16T01:01:37.251Z,3.57
2019-03-16T01:04:07.862Z,3.33
2019-03-16T01:06:39.429Z,4.17
2019-03-16T01:09:09.991Z,5.33
2019-03-16T01:11:40.564Z,3.70
2019-03-16T01:14:11.122Z,3.50
2019-03-16T01:16:41.721Z,4.50
2019-03-16T01:19:12.317Z,3.37
2019-03-16T01:21:42.975Z,3.80
2019-03-16T01:24:13.623Z,2.93
2019-03-16T01:26:44.210Z,4.07
2019-03-16T01:29:14.811Z,3.27
2019-03-16T01:31:45.286Z,3.80
2019-03-16T01:34:15.844Z,3.93
2019-03-16T01:36:46.419Z,4.60
2019-03-16T01:39:16.994Z,3.23
2019-03-16T01:41:47.493Z,3.30
2019-03-16T01:44:18.162Z,3.63
2019-03-16T01:46:48.730Z,3.03
2019-03-16T01:49:19.317Z,3.47
2019-03-16T01:51:49.907Z,3.33
2019-03-16T01:54:20.489Z,3.97
2019-03-16T01:56:51.058Z,3.43
2019-03-16T01:59:21.691Z,3.37
2019-03-16T02:01:52.269Z,3.37
2019-03-16T02:04:22.883Z,3.90
2019-03-16T02:06:53.486Z,4.23
2019-03-16T02:09:24.054Z,3.50
2019-03-16T02:11:54.647Z,3.00
2019-03-16T02:14:25.219Z,2.57
2019-03-16T02:16:56.740Z,3.30
2019-03-16T02:19:27.272Z,3.13
2019-03-16T02:21:57.836Z,3.03
2019-03-16T02:24:28.704Z,2.50
2019-03-16T02:26:59.178Z,2.90
2019-03-16T02:29:29.794Z,2.83
2019-03-16T02:32:00.311Z,3.43
2019-03-16T02:34:30.957Z,2.37
2019-03-16T02:37:01.509Z,3.07
2019-03-16T02:39:32.126Z,3.43
2019-03-16T02:42:02.698Z,3.83
2019-03-16T02:44:33.256Z,3.33
2019-03-16T02:47:03.730Z,3.57
2019-03-16T02:49:34.293Z,4.23
2019-03-16T02:52:04.891Z,3.20
2019-03-16T02:54:35.408Z,4.10
2019-03-16T02:57:05.996Z,3.80
2019-03-16T02:59:36.479Z,3.77
2019-03-16T03:02:07.122Z,4.20
2019-03-16T03:04:37.666Z,5.23
2019-03-16T03:07:08.230Z,3.57
2019-03-16T03:09:38.831Z,2.63
2019-03-16T03:12:09.390Z,3.93
2019-03-16T03:14:40.001Z,3.73
2019-03-16T03:17:10.506Z,3.77
2019-03-16T03:19:41.211Z,3.17
2019-03-16T03:22:11.745Z,3.70
2019-03-16T03:24:44.571Z,3.33
2019-03-16T03:27:14.583Z,4.13
2019-03-16T03:29:45.098Z,3.00
2019-03-16T03:32:15.715Z,3.17
2019-03-16T03:34:46.304Z,3.23
2019-03-16T03:37:16.841Z,2.77
2019-03-16T03:39:47.340Z,3.70
2019-03-16T03:42:17.880Z,3.10
2019-03-16T03:44:48.359Z,3.50
2019-03-16T03:47:18.901Z,4.10
2019-03-16T03:49:50.464Z,3.50
2019-03-16T03:52:21.029Z,2.77
2019-03-16T03:54:51.637Z,3.13
2019-03-16T03:57:22.227Z,2.57
2019-03-16T03:59:52.812Z,2.87
2019-03-16T04:02:23.323Z,2.60
2019-03-16T04:04:53.850Z,2.97
2019-03-16T04:07:24.355Z,3.30
2019-03-16T04:09:54.919Z,2.67
2019-03-16T04:12:25.499Z,3.03
2019-03-16T04:14:56.099Z,3.40
2019-03-16T04:17:26.672Z,2.77
2019-03-16T04:19:57.200Z,2.80
2019-03-16T04:22:27.686Z,3.80
2019-03-16T04:24:58.199Z,2.33
2019-03-16T04:27:28.700Z,2.37
2019-03-16T04:29:59.203Z,4.03
2019-03-16T04:32:29.833Z,2.63
2019-03-16T04:35:00.493Z,3.23
2019-03-16T04:37:31.036Z,3.77
2019-03-16T04:40:01.628Z,3.57
2019-03-16T04:45:21.459Z,3.53
2019-03-16T04:47:52.066Z,3.03
2019-03-16T04:50:22.654Z,3.23
2019-03-16T04:52:53.261Z,3.27
2019-03-16T04:55:23.820Z,3.27
2019-03-16T04:57:54.364Z,2.60
2019-03-16T05:00:24.963Z,3.23
2019-03-16T05:02:55.567Z,3.00
2019-03-16T05:08:15.864Z,2.60
2019-03-16T05:10:46.411Z,2.67
2019-03-16T05:13:16.974Z,2.23
2019-03-16T05:15:50.639Z,2.33
2019-03-16T05:18:19.751Z,2.30
2019-03-16T05:20:50.269Z,2.53
2019-03-16T05:23:20.808Z,2.27
2019-03-16T05:25:51.391Z,2.00
2019-03-16T05:28:21.934Z,2.07
2019-03-16T05:30:52.455Z,2.23
2019-03-16T05:33:23.037Z,3.20
2019-03-16T05:35:53.601Z,2.90
2019-03-16T05:38:24.129Z,2.30
2019-03-16T05:40:54.801Z,2.40
2019-03-16T05:43:25.364Z,2.10
2019-03-16T05:45:55.955Z,1.90
2019-03-16T05:48:26.463Z,2.50
2019-03-16T05:50:57.626Z,3.07
2019-03-16T05:53:28.291Z,3.03
2019-03-16T05:55:58.887Z,2.60
2019-03-16T05:58:29.471Z,2.83
2019-03-16T06:01:00.108Z,2.50
2019-03-16T06:03:30.615Z,2.70
2019-03-16T06:06:01.169Z,3.03
2019-03-16T06:08:31.744Z,3.27
2019-03-16T06:11:02.358Z,2.47
2019-03-16T06:16:22.292Z,2.57
2019-03-16T06:18:52.782Z,3.00
2019-03-16T06:21:23.314Z,2.63
2019-03-16T06:23:53.903Z,2.20
2019-03-16T06:26:24.438Z,2.93
2019-03-16T06:28:54.971Z,3.13
2019-03-16T06:31:25.585Z,3.27
2019-03-16T06:33:56.140Z,3.07
2019-03-16T06:36:26.737Z,2.03
2019-03-16T06:38:57.315Z,2.10
2019-03-16T06:41:27.897Z,2.83
2019-03-16T06:43:58.398Z,2.77
2019-03-16T06:46:29.014Z,2.10
2019-03-16T06:48:59.548Z,2.57
2019-03-16T06:51:34.302Z,2.67
2019-03-16T06:54:04.767Z,2.37
2019-03-16T06:56:35.251Z,2.07
2019-03-16T06:59:05.803Z,2.67
2019-03-16T07:01:36.284Z,2.60
2019-03-16T07:04:06.776Z,2.07
2019-03-16T07:06:37.281Z,2.23
2019-03-16T07:09:09.055Z,1.80
2019-03-16T07:11:39.556Z,2.43
2019-03-16T07:14:10.116Z,2.07
2019-03-16T07:16:40.611Z,1.63
2019-03-16T07:19:11.196Z,2.07
2019-03-16T07:21:41.688Z,1.60
2019-03-16T07:24:12.166Z,1.70
2019-03-16T07:26:42.762Z,2.03
2019-03-16T07:29:14.300Z,1.27
2019-03-16T07:31:44.885Z,1.53
2019-03-16T07:34:15.435Z,1.90
2019-03-16T07:36:46.029Z,2.00
2019-03-16T07:39:16.537Z,1.83
2019-03-16T07:41:47.032Z,1.73
2019-03-16T07:44:17.507Z,3.33
2019-03-16T07:46:49.011Z,1.70
2019-03-16T07:49:19.609Z,2.97
2019-03-16T07:51:50.133Z,2.23
2019-03-16T07:57:16.332Z,2.40
2019-03-16T07:59:46.848Z,1.70
2019-03-16T08:02:17.380Z,2.17
2019-03-16T08:04:47.860Z,1.70
2019-03-16T08:07:18.422Z,1.67
2019-03-16T08:09:48.909Z,2.13
2019-03-16T08:12:19.450Z,1.80
2019-03-16T08:14:49.989Z,1.40
2019-03-16T08:17:20.478Z,1.87
2019-03-16T08:19:50.962Z,1.57
2019-03-16T08:22:21.484Z,1.70
2019-03-16T08:24:52.048Z,1.70
2019-03-16T08:27:22.550Z,2.30
2019-03-16T08:29:53.103Z,1.13
2019-03-16T08:32:25.461Z,1.70
2019-03-16T08:34:55.770Z,1.50
2019-03-16T08:37:26.307Z,1.50
2019-03-16T08:39:56.900Z,1.40
2019-03-16T08:42:27.380Z,2.30
2019-03-16T08:44:57.921Z,1.73
2019-03-16T08:47:31.285Z,1.53
2019-03-16T08:50:00.727Z,1.30
2019-03-16T08:52:31.263Z,1.10
2019-03-16T08:55:01.748Z,1.80
2019-03-16T08:57:32.207Z,1.83
2019-03-16T09:00:03.913Z,1.43
2019-03-16T09:02:34.485Z,1.67
2019-03-16T09:05:05.267Z,1.40
2019-03-16T09:07:35.990Z,1.50
2019-03-16T09:10:06.809Z,1.43
2019-03-16T09:12:37.338Z,1.33
2019-03-16T09:15:09.332Z,1.70
2019-03-16T09:17:39.881Z,1.33
2019-03-16T09:20:10.526Z,1.50
2019-03-16T09:22:41.098Z,1.23
2019-03-16T09:25:11.912Z,0.90
2019-03-16T09:27:42.459Z,1.07
2019-03-16T09:30:13.282Z,1.50
2019-03-16T09:32:43.790Z,1.43
2019-03-16T09:35:14.296Z,2.03
2019-03-16T09:37:45.860Z,1.37
2019-03-16T09:40:16.475Z,1.30
2019-03-16T09:42:47.132Z,0.97
2019-03-16T09:45:17.744Z,1.27
2019-03-16T09:47:48.404Z,1.67
2019-03-16T09:50:19.046Z,1.13
2019-03-16T09:52:49.617Z,1.10
2019-03-16T09:55:20.129Z,2.00
2019-03-16T09:57:50.684Z,0.80
2019-03-16T10:00:21.289Z,1.20
2019-03-16T10:02:51.846Z,1.53
2019-03-16T10:05:22.350Z,1.20
2019-03-16T10:07:52.976Z,1.27
2019-03-16T10:10:23.523Z,1.10
2019-03-16T10:15:50.137Z,1.27
2019-03-16T10:21:10.332Z,1.60
2019-03-16T10:23:40.855Z,1.73
2019-03-16T10:26:11.388Z,7.77
2019-03-16T10:28:43.854Z,1.97
2019-03-16T10:31:14.157Z,1.63
2019-03-16T10:33:44.769Z,1.97
2019-03-16T10:36:15.332Z,2.03
2019-03-16T10:38:45.920Z,2.10
2019-03-16T10:41:16.542Z,2.00
2019-03-16T10:43:47.118Z,1.73
2019-03-16T10:46:17.705Z,2.00
2019-03-16T10:48:48.316Z,1.80
2019-03-16T10:51:18.896Z,1.87
2019-03-16T10:53:49.500Z,1.60
2019-03-16T10:56:20.114Z,2.30
2019-03-16T10:58:56.635Z,2.03
2019-03-16T11:01:22.804Z,2.30
2019-03-16T11:03:53.270Z,3.93
2019-03-16T11:06:23.850Z,2.17
2019-03-16T11:08:54.462Z,3.07
2019-03-16T11:11:24.980Z,2.33
2019-03-16T11:13:55.584Z,2.43
2019-03-16T11:16:26.102Z,2.77
2019-03-16T11:18:56.731Z,1.90
2019-03-16T11:21:27.274Z,2.33
2019-03-16T11:23:57.872Z,2.00
2019-03-16T11:26:28.415Z,1.87
2019-03-16T11:29:08.552Z,2.03
2019-03-16T11:31:31.422Z,2.37
2019-03-16T11:34:01.983Z,1.90
2019-03-16T11:36:32.592Z,2.27
2019-03-16T11:39:03.182Z,2.33
2019-03-16T11:41:33.737Z,2.73
2019-03-16T11:44:04.292Z,2.63
2019-03-16T11:46:34.947Z,2.50
2019-03-16T11:49:05.424Z,2.00
2019-03-16T11:51:35.942Z,2.77
2019-03-16T11:54:06.517Z,1.50
2019-03-16T11:56:37.084Z,2.33
2019-03-16T11:59:07.623Z,2.63
2019-03-16T12:01:38.237Z,3.37
2019-03-16T12:04:08.873Z,2.70
2019-03-16T12:06:39.520Z,2.13
2019-03-16T12:09:10.206Z,2.30
2019-03-16T12:11:40.787Z,2.07
2019-03-16T12:14:11.343Z,2.70
2019-03-16T12:16:41.952Z,2.67
2019-03-16T12:19:12.534Z,2.80
2019-03-16T12:21:43.121Z,3.40
2019-03-16T12:24:13.714Z,3.80
2019-03-16T12:26:44.201Z,3.07
2019-03-16T12:29:14.836Z,3.00
2019-03-16T12:31:46.368Z,3.30
2019-03-16T12:34:16.884Z,2.97
2019-03-16T12:36:47.364Z,3.10
2019-03-16T12:39:17.932Z,3.53
2019-03-16T12:41:48.483Z,3.30
2019-03-16T12:44:19.072Z,3.20
2019-03-16T12:46:49.548Z,3.10
2019-03-16T12:52:09.371Z,2.93
2019-03-16T12:54:39.998Z,2.90
2019-03-16T12:57:10.599Z,3.27
2019-03-16T12:59:46.949Z,3.37
2019-03-16T13:02:14.279Z,3.23
2019-03-16T13:04:44.824Z,2.97
2019-03-16T13:07:15.316Z,2.20
2019-03-16T13:09:45.890Z,2.73
2019-03-16T13:12:16.361Z,2.97
2019-03-16T13:14:46.811Z,2.93
2019-03-16T13:17:18.304Z,3.70
2019-03-16T13:19:48.840Z,3.53
2019-03-16T13:22:19.338Z,2.50
2019-03-16T13:24:49.903Z,2.93
2019-03-16T13:27:20.403Z,2.60
2019-03-16T13:29:58.871Z,2.73
2019-03-16T13:32:23.097Z,2.90
2019-03-16T13:34:53.657Z,2.57
2019-03-16T13:37:24.164Z,2.93
2019-03-16T13:39:54.699Z,2.70
2019-03-16T13:42:25.266Z,2.67
2019-03-16T13:44:55.748Z,3.13
2019-03-16T13:47:26.306Z,2.73
2019-03-16T13:49:56.896Z,3.00
2019-03-16T13:52:28.341Z,2.63
2019-03-16T13:54:58.823Z,3.33
2019-03-16T13:57:29.605Z,2.47
2019-03-16T14:00:11.341Z,2.63
2019-03-16T14:02:32.663Z,2.77
2019-03-16T14:05:03.252Z,3.23
2019-03-16T14:07:34.334Z,3.50
2019-03-16T14:10:05.212Z,2.80
2019-03-16T14:12:36.796Z,3.33
2019-03-16T14:15:07.418Z,3.23
2019-03-16T14:17:38.191Z,2.90
2019-03-16T14:20:10.656Z,3.23
2019-03-16T14:22:41.212Z,4.17
2019-03-16T14:25:11.811Z,3.53
2019-03-16T14:27:42.655Z,3.87
2019-03-16T14:30:29.111Z,3.60
2019-03-16T14:32:46.200Z,4.33
2019-03-16T14:35:16.737Z,3.80
2019-03-16T14:37:47.345Z,3.63
2019-03-16T14:40:18.540Z,4.30
2019-03-16T14:42:49.095Z,3.87
2019-03-16T14:45:19.906Z,4.30
2019-03-16T14:47:50.488Z,3.27
2019-03-16T14:50:21.331Z,3.70
2019-03-16T14:52:51.867Z,3.37
2019-03-16T14:55:22.466Z,4.00
2019-03-16T14:57:52.996Z,4.33
2019-03-16T15:00:23.576Z,3.70
2019-03-16T15:02:54.155Z,3.50
2019-03-16T15:05:24.705Z,3.67
2019-03-16T15:07:55.283Z,3.30
2019-03-16T15:10:25.899Z,3.27
2019-03-16T15:12:56.452Z,3.93
2019-03-16T15:15:27.053Z,4.07
2019-03-16T15:17:57.673Z,3.50
2019-03-16T15:23:10.719Z,3.50
2019-03-16T15:25:41.323Z,4.33
2019-03-16T15:28:11.821Z,3.10
2019-03-16T15:30:50.665Z,3.57
2019-03-16T15:33:14.583Z,3.57
2019-03-16T15:35:45.128Z,3.60
2019-03-16T15:38:15.804Z,3.53
2019-03-16T15:40:46.392Z,3.07
2019-03-16T15:43:16.949Z,3.13
2019-03-16T15:45:47.543Z,4.03
2019-03-16T15:48:18.084Z,2.80
2019-03-16T15:50:48.585Z,4.00
2019-03-16T15:53:19.137Z,3.27
2019-03-16T15:55:49.904Z,3.13
2019-03-16T15:58:20.446Z,4.10
2019-03-16T16:01:02.727Z,2.27
2019-03-16T16:03:23.386Z,2.57
2019-03-16T16:05:54.991Z,2.77
2019-03-16T16:08:25.623Z,2.80
2019-03-16T16:11:01.187Z,2.73
2019-03-16T16:13:28.472Z,2.83
2019-03-16T16:15:59.124Z,2.83
2019-03-16T16:18:29.741Z,3.80
2019-03-16T16:21:00.285Z,2.40
2019-03-16T16:23:30.807Z,2.80
2019-03-16T16:26:01.325Z,2.40
2019-03-16T16:28:31.938Z,2.23
2019-03-16T16:31:02.579Z,2.70
2019-03-16T16:33:33.147Z,2.20
2019-03-16T16:36:03.796Z,2.30
2019-03-16T16:38:34.438Z,2.70
2019-03-16T16:41:05.078Z,2.83
2019-03-16T16:43:35.656Z,2.50
2019-03-16T16:46:06.278Z,2.27
2019-03-16T16:48:36.915Z,2.50
2019-03-16T16:51:09.931Z,2.57
2019-03-16T16:53:40.588Z,2.20
2019-03-16T16:56:11.223Z,2.27
2019-03-16T16:58:41.831Z,2.00
2019-03-16T17:01:13.332Z,3.20
2019-03-16T17:03:43.951Z,2.73
2019-03-16T17:06:14.450Z,1.90
2019-03-16T17:08:44.994Z,1.87
2019-03-16T17:11:15.636Z,2.20
2019-03-16T17:13:48.062Z,1.90
2019-03-16T17:16:18.308Z,2.03
2019-03-16T17:18:48.856Z,2.07
2019-03-16T17:21:19.362Z,1.80
2019-03-16T17:23:49.904Z,1.83
2019-03-16T17:26:20.479Z,2.20
2019-03-16T17:28:51.060Z,2.10
2019-03-16T17:31:22.619Z,1.80
2019-03-16T17:33:53.194Z,2.40
2019-03-16T17:36:23.797Z,1.90
2019-03-16T17:41:43.196Z,2.20
2019-03-16T17:44:13.811Z,1.80
2019-03-16T17:46:44.371Z,2.10
2019-03-16T17:52:04.243Z,1.93
2019-03-16T17:54:34.768Z,2.00
2019-03-16T17:57:05.350Z,1.70
2019-03-16T17:59:35.962Z,2.90
2019-03-16T18:02:06.579Z,2.27
2019-03-16T18:04:37.208Z,1.80
2019-03-16T18:07:07.779Z,2.23
2019-03-16T18:09:38.369Z,1.77
2019-03-16T18:12:08.874Z,1.63
2019-03-16T18:14:39.433Z,1.80
2019-03-16T18:17:09.984Z,1.70
2019-03-16T18:19:40.562Z,1.77
2019-03-16T18:22:11.068Z,0.97
2019-03-16T18:24:41.551Z,0.50
2019-03-16T18:27:12.188Z,0.50
2019-03-16T18:29:42.764Z,0.97
2019-03-16T18:32:13.332Z,0.70
2019-03-16T18:34:44.925Z,1.10
2019-03-16T18:37:15.527Z,1.63
2019-03-16T18:39:46.132Z,1.90
2019-03-16T18:42:16.721Z,2.23
2019-03-16T18:44:47.253Z,2.13
2019-03-16T18:47:17.807Z,2.23
2019-03-16T18:49:48.384Z,2.20
2019-03-16T18:52:18.945Z,1.97
2019-03-16T18:54:49.499Z,2.67
2019-03-16T18:57:20.080Z,2.20
2019-03-16T18:59:50.671Z,3.17
2019-03-16T19:02:21.234Z,2.63
2019-03-16T19:04:51.823Z,1.70
2019-03-16T19:07:23.413Z,1.80
2019-03-16T19:09:54.022Z,2.03
2019-03-16T19:12:24.560Z,1.70
2019-03-16T19:14:55.188Z,1.60
2019-03-16T19:17:25.739Z,1.50
2019-03-16T19:19:56.353Z,2.30
2019-03-16T19:22:26.824Z,2.83
2019-03-16T19:24:57.405Z,2.03
2019-03-16T19:27:27.968Z,2.80
2019-03-16T19:29:58.580Z,2.30
2019-03-16T19:32:33.983Z,1.67
2019-03-16T19:35:01.325Z,1.77
2019-03-16T19:37:31.932Z,2.40
2019-03-16T19:40:02.452Z,2.13
2019-03-16T19:42:34.016Z,2.00
2019-03-16T19:45:04.803Z,1.80
2019-03-16T19:47:35.368Z,1.50
2019-03-16T19:50:06.577Z,2.00
2019-03-16T19:52:37.179Z,1.73
2019-03-16T19:55:08.026Z,1.87
2019-03-16T19:57:38.546Z,1.90
2019-03-16T20:00:10.678Z,2.20
2019-03-16T20:02:47.354Z,1.90
2019-03-16T20:05:14.779Z,1.40
2019-03-16T20:07:45.468Z,1.40
2019-03-16T20:10:16.190Z,1.57
2019-03-16T20:12:46.876Z,1.70
2019-03-16T20:15:17.506Z,1.50
2019-03-16T20:17:48.080Z,2.00
2019-03-16T20:20:18.726Z,1.70
2019-03-16T20:22:49.318Z,1.77
2019-03-16T20:25:19.907Z,2.53
2019-03-16T20:27:50.504Z,1.43
2019-03-16T20:30:26.575Z,2.23
2019-03-16T20:33:03.482Z,2.47
2019-03-16T20:35:25.521Z,1.90
2019-03-16T20:37:56.117Z,2.17
2019-03-16T20:40:26.698Z,1.70
2019-03-16T20:42:57.283Z,1.77
2019-03-16T20:45:27.924Z,1.23
2019-03-16T20:47:58.668Z,1.83
2019-03-16T20:53:05.207Z,1.43
2019-03-16T20:55:35.783Z,1.93
2019-03-16T20:58:06.294Z,1.70
2019-03-16T21:00:36.812Z,1.40
2019-03-16T21:03:15.906Z,2.00
2019-03-16T21:05:39.828Z,1.80
2019-03-16T21:08:10.474Z,1.60
2019-03-16T21:10:41.016Z,1.43
2019-03-16T21:13:11.653Z,1.30
2019-03-16T21:15:42.219Z,1.30
2019-03-16T21:18:12.839Z,1.20
2019-03-16T21:20:43.543Z,1.40
2019-03-16T21:23:14.193Z,1.53
2019-03-16T21:25:44.790Z,2.10
2019-03-16T21:28:16.128Z,2.00
2019-03-16T21:30:46.874Z,2.50
2019-03-16T21:33:29.089Z,2.17
2019-03-16T21:35:50.671Z,2.03
2019-03-16T21:38:21.288Z,2.17
2019-03-16T21:40:52.020Z,1.93
2019-03-16T21:43:22.680Z,2.37
2019-03-16T21:45:53.339Z,2.60
2019-03-16T21:48:23.975Z,2.10
2019-03-16T21:50:54.595Z,2.60
2019-03-16T21:53:25.147Z,3.03
2019-03-16T21:55:55.834Z,2.70
2019-03-16T21:58:27.362Z,2.73
2019-03-16T22:00:58.076Z,2.67
2019-03-16T22:03:41.438Z,2.70
2019-03-16T22:06:00.878Z,2.10
2019-03-16T22:08:31.476Z,2.30
2019-03-16T22:11:02.115Z,2.53
2019-03-16T22:13:32.717Z,1.97
2019-03-16T22:16:03.234Z,1.90
2019-03-16T22:18:33.856Z,2.40
2019-03-16T22:21:04.402Z,1.77
2019-03-16T22:23:34.977Z,2.30
2019-03-16T22:26:05.464Z,1.70
2019-03-16T22:28:36.069Z,2.17
2019-03-16T22:31:06.662Z,2.97
2019-03-16T22:33:37.168Z,2.00
2019-03-16T22:36:07.778Z,2.20
2019-03-16T22:38:38.318Z,2.40
2019-03-16T22:41:08.884Z,2.57
2019-03-16T22:43:39.459Z,2.37
2019-03-16T22:46:10.037Z,1.67
2019-03-16T22:48:40.592Z,2.40
2019-03-16T22:51:11.177Z,1.60
2019-03-16T22:53:41.864Z,2.70
2019-03-16T22:56:12.352Z,1.87
2019-03-16T22:58:42.865Z,1.93
2019-03-16T23:01:13.496Z,1.63
2019-03-16T23:03:44.050Z,2.20
2019-03-16T23:06:14.665Z,2.10
2019-03-16T23:08:46.134Z,2.07
2019-03-16T23:11:16.752Z,2.20
2019-03-16T23:13:47.267Z,2.00
2019-03-16T23:16:18.821Z,1.97
2019-03-16T23:18:49.963Z,2.07
2019-03-16T23:21:20.529Z,2.87
2019-03-16T23:23:51.081Z,1.77
2019-03-16T23:26:22.728Z,1.70
2019-03-16T23:28:53.373Z,2.03
2019-03-16T23:31:25.064Z,2.00
2019-03-16T23:33:55.664Z,1.80
2019-03-16T23:36:26.219Z,2.30
2019-03-16T23:41:45.785Z,2.03
2019-03-16T23:44:16.391Z,2.30
2019-03-16T23:46:47.079Z,3.00
2019-03-16T23:49:17.516Z,1.97
2019-03-16T23:51:48.085Z,2.00
2019-03-16T23:54:18.624Z,2.20
2019-03-16T23:59:38.745Z,1.47
